Terminal Aerodrome Forecast
Issued by NWS Bismarck, ND

Home | Current Version | Previous Version | Graphics & Text | Print | Product List | Glossary On
Versions: 1 2 3 4 5 6 7 8 9 10 11 12 13 14 15 16 17 18 19 20
000
FTUS43 KBIS 201129
TAFBIS
TAF
KBIS 201129Z 2012/2112 VRB03KT P6SM FEW250
     FM201700 16011G20KT P6SM FEW100 FEW200
     FM210300 13007KT P6SM SCT120 BKN200
     FM210500 14007KT P6SM FEW110 SCT250 WS020/18035KT=

USA.gov is the U.S. government's official web portal to all federal, state and local government web resources and services.